sensor_id;sensor_type;location;lat;lon;timestamp;P1;durP1;ratioP1;P2;durP2;ratioP2
36855;SDS011;22788;51.434;6.786;2024-02-26T00:01:26;2.63;;;2.07;;
36855;SDS011;22788;51.434;6.786;2024-02-26T00:03:55;2.97;;;2.10;;
36855;SDS011;22788;51.434;6.786;2024-02-26T00:06:23;2.23;;;1.80;;
36855;SDS011;22788;51.434;6.786;2024-02-26T00:08:49;4.10;;;1.63;;
36855;SDS011;22788;51.434;6.786;2024-02-26T00:11:16;3.33;;;2.07;;
36855;SDS011;22788;51.434;6.786;2024-02-26T00:13:41;2.27;;;1.83;;
36855;SDS011;22788;51.434;6.786;2024-02-26T00:16:07;2.73;;;2.53;;
36855;SDS011;22788;51.434;6.786;2024-02-26T00:18:33;2.27;;;2.07;;
36855;SDS011;22788;51.434;6.786;2024-02-26T00:20:58;5.80;;;2.17;;
36855;SDS011;22788;51.434;6.786;2024-02-26T00:23:24;5.80;;;2.20;;
36855;SDS011;22788;51.434;6.786;2024-02-26T00:25:49;2.20;;;1.90;;
36855;SDS011;22788;51.434;6.786;2024-02-26T00:28:16;4.47;;;2.30;;
36855;SDS011;22788;51.434;6.786;2024-02-26T00:30:42;3.30;;;1.90;;
36855;SDS011;22788;51.434;6.786;2024-02-26T00:33:08;3.60;;;2.10;;
36855;SDS011;22788;51.434;6.786;2024-02-26T00:35:33;2.10;;;1.83;;
36855;SDS011;22788;51.434;6.786;2024-02-26T00:37:59;2.87;;;2.10;;
36855;SDS011;22788;51.434;6.786;2024-02-26T00:40:24;3.30;;;1.90;;
36855;SDS011;22788;51.434;6.786;2024-02-26T00:42:50;2.43;;;1.90;;
36855;SDS011;22788;51.434;6.786;2024-02-26T00:45:17;3.27;;;1.83;;
36855;SDS011;22788;51.434;6.786;2024-02-26T00:47:43;3.63;;;1.60;;
36855;SDS011;22788;51.434;6.786;2024-02-26T00:50:09;2.20;;;1.90;;
36855;SDS011;22788;51.434;6.786;2024-02-26T00:52:35;1.60;;;1.50;;
36855;SDS011;22788;51.434;6.786;2024-02-26T00:55:01;3.10;;;2.07;;
36855;SDS011;22788;51.434;6.786;2024-02-26T00:57:28;2.87;;;1.93;;
36855;SDS011;22788;51.434;6.786;2024-02-26T00:59:53;2.27;;;1.97;;
36855;SDS011;22788;51.434;6.786;2024-02-26T01:02:20;2.27;;;1.60;;
36855;SDS011;22788;51.434;6.786;2024-02-26T01:04:46;1.97;;;1.70;;
36855;SDS011;22788;51.434;6.786;2024-02-26T01:07:11;3.30;;;1.90;;
36855;SDS011;22788;51.434;6.786;2024-02-26T01:09:37;2.33;;;2.07;;
36855;SDS011;22788;51.434;6.786;2024-02-26T01:12:03;2.00;;;1.67;;
36855;SDS011;22788;51.434;6.786;2024-02-26T01:14:29;3.17;;;1.60;;
36855;SDS011;22788;51.434;6.786;2024-02-26T01:16:54;2.83;;;1.90;;
36855;SDS011;22788;51.434;6.786;2024-02-26T01:19:22;1.83;;;1.60;;
36855;SDS011;22788;51.434;6.786;2024-02-26T01:21:47;2.17;;;1.80;;
36855;SDS011;22788;51.434;6.786;2024-02-26T01:24:13;1.97;;;1.50;;
36855;SDS011;22788;51.434;6.786;2024-02-26T01:26:38;1.83;;;1.53;;
36855;SDS011;22788;51.434;6.786;2024-02-26T01:29:04;2.00;;;1.90;;
36855;SDS011;22788;51.434;6.786;2024-02-26T01:31:29;2.57;;;1.53;;
36855;SDS011;22788;51.434;6.786;2024-02-26T01:33:55;2.43;;;1.80;;
36855;SDS011;22788;51.434;6.786;2024-02-26T01:36:22;1.63;;;1.53;;
36855;SDS011;22788;51.434;6.786;2024-02-26T01:38:48;1.60;;;1.50;;
36855;SDS011;22788;51.434;6.786;2024-02-26T01:41:13;1.80;;;1.60;;
36855;SDS011;22788;51.434;6.786;2024-02-26T01:43:39;2.30;;;1.70;;
36855;SDS011;22788;51.434;6.786;2024-02-26T01:46:04;1.50;;;1.40;;
36855;SDS011;22788;51.434;6.786;2024-02-26T01:48:31;1.60;;;1.50;;
36855;SDS011;22788;51.434;6.786;2024-02-26T01:50:56;2.70;;;1.73;;
36855;SDS011;22788;51.434;6.786;2024-02-26T01:53:24;1.83;;;1.63;;
36855;SDS011;22788;51.434;6.786;2024-02-26T01:55:49;2.03;;;1.43;;
36855;SDS011;22788;51.434;6.786;2024-02-26T01:58:15;2.07;;;1.50;;
36855;SDS011;22788;51.434;6.786;2024-02-26T02:00:41;3.10;;;1.77;;
36855;SDS011;22788;51.434;6.786;2024-02-26T02:03:07;1.67;;;1.50;;
36855;SDS011;22788;51.434;6.786;2024-02-26T02:05:33;2.33;;;1.80;;
36855;SDS011;22788;51.434;6.786;2024-02-26T02:07:59;3.97;;;1.33;;
36855;SDS011;22788;51.434;6.786;2024-02-26T02:10:27;2.23;;;1.77;;
36855;SDS011;22788;51.434;6.786;2024-02-26T02:12:52;2.20;;;2.00;;
36855;SDS011;22788;51.434;6.786;2024-02-26T02:15:18;1.43;;;1.30;;
36855;SDS011;22788;51.434;6.786;2024-02-26T02:17:44;2.70;;;1.70;;
36855;SDS011;22788;51.434;6.786;2024-02-26T02:20:14;2.27;;;1.77;;
36855;SDS011;22788;51.434;6.786;2024-02-26T02:22:41;2.80;;;1.83;;
36855;SDS011;22788;51.434;6.786;2024-02-26T02:25:07;1.70;;;1.40;;
36855;SDS011;22788;51.434;6.786;2024-02-26T02:27:33;3.13;;;1.80;;
36855;SDS011;22788;51.434;6.786;2024-02-26T02:30:00;2.70;;;1.77;;
36855;SDS011;22788;51.434;6.786;2024-02-26T02:32:25;1.80;;;1.70;;
36855;SDS011;22788;51.434;6.786;2024-02-26T02:34:52;2.63;;;1.70;;
36855;SDS011;22788;51.434;6.786;2024-02-26T02:37:18;2.10;;;1.50;;
36855;SDS011;22788;51.434;6.786;2024-02-26T02:39:45;1.80;;;1.70;;
36855;SDS011;22788;51.434;6.786;2024-02-26T02:42:11;1.63;;;1.30;;
36855;SDS011;22788;51.434;6.786;2024-02-26T02:44:36;2.07;;;1.87;;
36855;SDS011;22788;51.434;6.786;2024-02-26T02:47:04;3.00;;;2.00;;
36855;SDS011;22788;51.434;6.786;2024-02-26T02:49:30;3.03;;;1.80;;
36855;SDS011;22788;51.434;6.786;2024-02-26T02:51:55;1.60;;;1.50;;
36855;SDS011;22788;51.434;6.786;2024-02-26T02:54:23;2.53;;;1.90;;
36855;SDS011;22788;51.434;6.786;2024-02-26T02:56:50;1.90;;;1.80;;
36855;SDS011;22788;51.434;6.786;2024-02-26T02:59:16;2.43;;;1.97;;
36855;SDS011;22788;51.434;6.786;2024-02-26T03:01:41;2.37;;;1.90;;
36855;SDS011;22788;51.434;6.786;2024-02-26T03:04:07;1.97;;;1.70;;
36855;SDS011;22788;51.434;6.786;2024-02-26T03:06:32;2.30;;;2.10;;
36855;SDS011;22788;51.434;6.786;2024-02-26T03:08:58;3.03;;;2.00;;
36855;SDS011;22788;51.434;6.786;2024-02-26T03:11:23;2.43;;;1.97;;
36855;SDS011;22788;51.434;6.786;2024-02-26T03:13:50;2.23;;;1.67;;
36855;SDS011;22788;51.434;6.786;2024-02-26T03:16:16;1.80;;;1.60;;
36855;SDS011;22788;51.434;6.786;2024-02-26T03:18:42;2.77;;;2.33;;
36855;SDS011;22788;51.434;6.786;2024-02-26T03:21:08;2.50;;;2.03;;
36855;SDS011;22788;51.434;6.786;2024-02-26T03:23:33;2.13;;;1.77;;
36855;SDS011;22788;51.434;6.786;2024-02-26T03:25:59;3.67;;;1.87;;
36855;SDS011;22788;51.434;6.786;2024-02-26T03:28:24;3.17;;;2.40;;
36855;SDS011;22788;51.434;6.786;2024-02-26T03:30:51;1.57;;;1.47;;
36855;SDS011;22788;51.434;6.786;2024-02-26T03:33:17;2.00;;;1.80;;
36855;SDS011;22788;51.434;6.786;2024-02-26T03:35:43;1.83;;;1.70;;
36855;SDS011;22788;51.434;6.786;2024-02-26T03:45:58;2.33;;;1.77;;
36855;SDS011;22788;51.434;6.786;2024-02-26T03:48:37;2.93;;;2.00;;
36855;SDS011;22788;51.434;6.786;2024-02-26T03:51:03;2.70;;;2.00;;
36855;SDS011;22788;51.434;6.786;2024-02-26T03:53:29;2.73;;;1.90;;
36855;SDS011;22788;51.434;6.786;2024-02-26T03:55:55;1.67;;;1.50;;
36855;SDS011;22788;51.434;6.786;2024-02-26T03:58:20;2.93;;;2.23;;
36855;SDS011;22788;51.434;6.786;2024-02-26T04:00:46;2.50;;;1.73;;
36855;SDS011;22788;51.434;6.786;2024-02-26T04:03:13;2.77;;;2.03;;
36855;SDS011;22788;51.434;6.786;2024-02-26T04:05:41;2.40;;;1.90;;
36855;SDS011;22788;51.434;6.786;2024-02-26T04:08:06;2.50;;;1.93;;
36855;SDS011;22788;51.434;6.786;2024-02-26T04:10:32;2.13;;;1.80;;
36855;SDS011;22788;51.434;6.786;2024-02-26T04:12:58;2.20;;;1.90;;
36855;SDS011;22788;51.434;6.786;2024-02-26T04:15:23;2.23;;;1.80;;
36855;SDS011;22788;51.434;6.786;2024-02-26T04:17:49;2.43;;;1.80;;
36855;SDS011;22788;51.434;6.786;2024-02-26T04:20:16;2.70;;;2.10;;
36855;SDS011;22788;51.434;6.786;2024-02-26T04:22:42;1.90;;;1.80;;
36855;SDS011;22788;51.434;6.786;2024-02-26T04:25:08;2.43;;;1.73;;
36855;SDS011;22788;51.434;6.786;2024-02-26T04:27:34;2.30;;;2.10;;
36855;SDS011;22788;51.434;6.786;2024-02-26T04:29:59;1.97;;;1.77;;
36855;SDS011;22788;51.434;6.786;2024-02-26T04:32:25;4.27;;;2.17;;
36855;SDS011;22788;51.434;6.786;2024-02-26T04:34:50;1.80;;;1.70;;
36855;SDS011;22788;51.434;6.786;2024-02-26T04:37:17;2.37;;;1.77;;
36855;SDS011;22788;51.434;6.786;2024-02-26T04:39:43;1.90;;;1.80;;
36855;SDS011;22788;51.434;6.786;2024-02-26T04:42:08;3.50;;;2.10;;
36855;SDS011;22788;51.434;6.786;2024-02-26T04:44:34;2.00;;;1.80;;
36855;SDS011;22788;51.434;6.786;2024-02-26T04:46:59;2.50;;;2.10;;
36855;SDS011;22788;51.434;6.786;2024-02-26T04:49:25;2.83;;;2.17;;
36855;SDS011;22788;51.434;6.786;2024-02-26T04:51:51;2.23;;;1.80;;
36855;SDS011;22788;51.434;6.786;2024-02-26T04:54:18;2.80;;;2.13;;
36855;SDS011;22788;51.434;6.786;2024-02-26T04:56:43;2.83;;;1.77;;
36855;SDS011;22788;51.434;6.786;2024-02-26T04:59:09;2.40;;;2.13;;
36855;SDS011;22788;51.434;6.786;2024-02-26T05:01:34;3.23;;;2.27;;
36855;SDS011;22788;51.434;6.786;2024-02-26T05:04:00;2.67;;;2.40;;
36855;SDS011;22788;51.434;6.786;2024-02-26T05:06:26;2.27;;;2.07;;
36855;SDS011;22788;51.434;6.786;2024-02-26T05:08:51;4.23;;;2.13;;
36855;SDS011;22788;51.434;6.786;2024-02-26T05:11:18;4.07;;;2.27;;
36855;SDS011;22788;51.434;6.786;2024-02-26T05:13:44;2.50;;;1.90;;
36855;SDS011;22788;51.434;6.786;2024-02-26T05:16:09;1.90;;;1.80;;
36855;SDS011;22788;51.434;6.786;2024-02-26T05:18:35;3.03;;;2.27;;
36855;SDS011;22788;51.434;6.786;2024-02-26T05:21:00;4.20;;;1.83;;
36855;SDS011;22788;51.434;6.786;2024-02-26T05:23:26;2.40;;;2.20;;
36855;SDS011;22788;51.434;6.786;2024-02-26T05:25:52;3.37;;;2.10;;
36855;SDS011;22788;51.434;6.786;2024-02-26T05:28:19;2.50;;;2.30;;
36855;SDS011;22788;51.434;6.786;2024-02-26T05:30:45;3.80;;;2.27;;
36855;SDS011;22788;51.434;6.786;2024-02-26T05:33:10;2.23;;;2.00;;
36855;SDS011;22788;51.434;6.786;2024-02-26T05:35:36;4.33;;;1.90;;
36855;SDS011;22788;51.434;6.786;2024-02-26T05:38:02;2.37;;;2.17;;
36855;SDS011;22788;51.434;6.786;2024-02-26T05:40:27;2.63;;;2.17;;
36855;SDS011;22788;51.434;6.786;2024-02-26T05:42:53;2.70;;;2.40;;
36855;SDS011;22788;51.434;6.786;2024-02-26T05:45:20;3.10;;;2.00;;
36855;SDS011;22788;51.434;6.786;2024-02-26T05:47:45;2.03;;;1.77;;
36855;SDS011;22788;51.434;6.786;2024-02-26T05:50:11;4.00;;;2.37;;
36855;SDS011;22788;51.434;6.786;2024-02-26T05:52:36;4.23;;;2.23;;
36855;SDS011;22788;51.434;6.786;2024-02-26T05:55:02;2.40;;;2.20;;
36855;SDS011;22788;51.434;6.786;2024-02-26T05:57:28;3.50;;;2.40;;
36855;SDS011;22788;51.434;6.786;2024-02-26T05:59:54;2.57;;;2.17;;
36855;SDS011;22788;51.434;6.786;2024-02-26T06:02:21;2.90;;;2.30;;
36855;SDS011;22788;51.434;6.786;2024-02-26T06:04:46;3.43;;;2.40;;
36855;SDS011;22788;51.434;6.786;2024-02-26T06:07:12;3.80;;;2.10;;
36855;SDS011;22788;51.434;6.786;2024-02-26T06:09:38;2.50;;;2.30;;
36855;SDS011;22788;51.434;6.786;2024-02-26T06:12:03;3.03;;;2.20;;
36855;SDS011;22788;51.434;6.786;2024-02-26T06:14:29;2.53;;;1.80;;
36855;SDS011;22788;51.434;6.786;2024-02-26T06:16:55;2.10;;;1.93;;
36855;SDS011;22788;51.434;6.786;2024-02-26T06:19:22;3.13;;;2.27;;
36855;SDS011;22788;51.434;6.786;2024-02-26T06:21:48;4.27;;;2.10;;
36855;SDS011;22788;51.434;6.786;2024-02-26T06:24:13;3.90;;;1.97;;
36855;SDS011;22788;51.434;6.786;2024-02-26T06:26:39;4.07;;;2.50;;
36855;SDS011;22788;51.434;6.786;2024-02-26T06:29:04;2.73;;;2.20;;
36855;SDS011;22788;51.434;6.786;2024-02-26T06:31:30;2.50;;;2.20;;
36855;SDS011;22788;51.434;6.786;2024-02-26T06:34:02;2.30;;;1.97;;
36855;SDS011;22788;51.434;6.786;2024-02-26T06:36:29;4.37;;;2.80;;
36855;SDS011;22788;51.434;6.786;2024-02-26T06:38:55;2.60;;;2.33;;
36855;SDS011;22788;51.434;6.786;2024-02-26T06:41:21;3.17;;;2.50;;
36855;SDS011;22788;51.434;6.786;2024-02-26T06:43:46;3.00;;;2.03;;
36855;SDS011;22788;51.434;6.786;2024-02-26T06:46:12;5.67;;;2.37;;
36855;SDS011;22788;51.434;6.786;2024-02-26T06:48:37;5.83;;;2.70;;
36855;SDS011;22788;51.434;6.786;2024-02-26T06:51:03;2.60;;;2.10;;
36855;SDS011;22788;51.434;6.786;2024-02-26T06:53:30;2.50;;;2.30;;
36855;SDS011;22788;51.434;6.786;2024-02-26T06:55:56;3.87;;;2.20;;
36855;SDS011;22788;51.434;6.786;2024-02-26T06:58:21;4.20;;;2.57;;
36855;SDS011;22788;51.434;6.786;2024-02-26T07:00:47;4.77;;;2.17;;
36855;SDS011;22788;51.434;6.786;2024-02-26T07:03:12;3.97;;;2.57;;
36855;SDS011;22788;51.434;6.786;2024-02-26T07:05:38;1.97;;;1.67;;
36855;SDS011;22788;51.434;6.786;2024-02-26T07:08:04;4.63;;;2.20;;
36855;SDS011;22788;51.434;6.786;2024-02-26T07:10:31;2.70;;;2.47;;
36855;SDS011;22788;51.434;6.786;2024-02-26T07:12:57;2.60;;;2.40;;
36855;SDS011;22788;51.434;6.786;2024-02-26T07:15:22;3.10;;;2.50;;
36855;SDS011;22788;51.434;6.786;2024-02-26T07:17:48;2.70;;;2.30;;
36855;SDS011;22788;51.434;6.786;2024-02-26T07:20:13;3.87;;;2.47;;
36855;SDS011;22788;51.434;6.786;2024-02-26T07:22:39;3.10;;;2.50;;
36855;SDS011;22788;51.434;6.786;2024-02-26T07:25:05;2.50;;;2.30;;
36855;SDS011;22788;51.434;6.786;2024-02-26T07:27:32;3.63;;;2.40;;
36855;SDS011;22788;51.434;6.786;2024-02-26T07:29:57;3.00;;;2.47;;
36855;SDS011;22788;51.434;6.786;2024-02-26T07:32:23;2.90;;;2.40;;
36855;SDS011;22788;51.434;6.786;2024-02-26T07:34:48;2.23;;;2.03;;
36855;SDS011;22788;51.434;6.786;2024-02-26T07:37:14;5.40;;;2.13;;
36855;SDS011;22788;51.434;6.786;2024-02-26T07:39:40;2.67;;;2.47;;
36855;SDS011;22788;51.434;6.786;2024-02-26T07:42:05;4.03;;;2.50;;
36855;SDS011;22788;51.434;6.786;2024-02-26T07:44:32;3.20;;;2.27;;
36855;SDS011;22788;51.434;6.786;2024-02-26T07:46:58;4.70;;;2.10;;
36855;SDS011;22788;51.434;6.786;2024-02-26T07:49:23;4.20;;;2.53;;
36855;SDS011;22788;51.434;6.786;2024-02-26T07:51:49;3.20;;;2.47;;
36855;SDS011;22788;51.434;6.786;2024-02-26T07:54:14;3.17;;;2.30;;
36855;SDS011;22788;51.434;6.786;2024-02-26T07:56:40;2.40;;;2.13;;
36855;SDS011;22788;51.434;6.786;2024-02-26T07:59:05;4.17;;;2.17;;
36855;SDS011;22788;51.434;6.786;2024-02-26T08:01:33;2.70;;;2.00;;
36855;SDS011;22788;51.434;6.786;2024-02-26T08:03:58;2.77;;;2.47;;
36855;SDS011;22788;51.434;6.786;2024-02-26T08:06:24;2.20;;;1.97;;
36855;SDS011;22788;51.434;6.786;2024-02-26T08:08:49;3.37;;;2.30;;
36855;SDS011;22788;51.434;6.786;2024-02-26T08:11:15;3.53;;;2.20;;
36855;SDS011;22788;51.434;6.786;2024-02-26T08:13:40;2.63;;;2.07;;
36855;SDS011;22788;51.434;6.786;2024-02-26T08:16:06;3.60;;;2.40;;
36855;SDS011;22788;51.434;6.786;2024-02-26T08:18:33;2.27;;;2.10;;
36855;SDS011;22788;51.434;6.786;2024-02-26T08:20:58;2.40;;;2.13;;
36855;SDS011;22788;51.434;6.786;2024-02-26T08:23:24;2.27;;;2.07;;
36855;SDS011;22788;51.434;6.786;2024-02-26T08:25:49;2.47;;;2.10;;
36855;SDS011;22788;51.434;6.786;2024-02-26T08:28:15;5.67;;;2.30;;
36855;SDS011;22788;51.434;6.786;2024-02-26T08:30:41;3.23;;;2.37;;
36855;SDS011;22788;51.434;6.786;2024-02-26T08:33:06;2.50;;;2.30;;
36855;SDS011;22788;51.434;6.786;2024-02-26T08:35:33;3.10;;;2.40;;
36855;SDS011;22788;51.434;6.786;2024-02-26T08:37:59;2.00;;;1.80;;
36855;SDS011;22788;51.434;6.786;2024-02-26T08:40:24;3.57;;;2.27;;
36855;SDS011;22788;51.434;6.786;2024-02-26T08:42:56;2.70;;;1.93;;
36855;SDS011;22788;51.434;6.786;2024-02-26T08:45:22;3.07;;;2.40;;
36855;SDS011;22788;51.434;6.786;2024-02-26T08:47:47;3.67;;;2.50;;
36855;SDS011;22788;51.434;6.786;2024-02-26T08:50:13;3.13;;;2.33;;
36855;SDS011;22788;51.434;6.786;2024-02-26T08:52:41;4.20;;;2.40;;
36855;SDS011;22788;51.434;6.786;2024-02-26T08:55:06;4.03;;;2.27;;
36855;SDS011;22788;51.434;6.786;2024-02-26T08:57:32;3.43;;;2.53;;
36855;SDS011;22788;51.434;6.786;2024-02-26T08:59:58;4.10;;;2.50;;
36855;SDS011;22788;51.434;6.786;2024-02-26T09:02:24;3.10;;;2.57;;
36855;SDS011;22788;51.434;6.786;2024-02-26T09:04:49;5.87;;;2.77;;
36855;SDS011;22788;51.434;6.786;2024-02-26T09:07:15;2.23;;;2.03;;
36855;SDS011;22788;51.434;6.786;2024-02-26T09:09:42;3.87;;;2.90;;
36855;SDS011;22788;51.434;6.786;2024-02-26T09:12:07;2.70;;;2.33;;
36855;SDS011;22788;51.434;6.786;2024-02-26T09:14:33;3.93;;;2.40;;
36855;SDS011;22788;51.434;6.786;2024-02-26T09:16:58;3.63;;;2.27;;
36855;SDS011;22788;51.434;6.786;2024-02-26T09:19:25;5.70;;;2.33;;
36855;SDS011;22788;51.434;6.786;2024-02-26T09:21:51;5.90;;;2.40;;
36855;SDS011;22788;51.434;6.786;2024-02-26T09:24:16;2.33;;;2.13;;
36855;SDS011;22788;51.434;6.786;2024-02-26T09:26:43;3.30;;;2.13;;
36855;SDS011;22788;51.434;6.786;2024-02-26T09:29:09;3.03;;;2.80;;
36855;SDS011;22788;51.434;6.786;2024-02-26T09:31:34;2.70;;;2.47;;
36855;SDS011;22788;51.434;6.786;2024-02-26T09:34:00;3.40;;;2.23;;
36855;SDS011;22788;51.434;6.786;2024-02-26T09:36:25;3.60;;;2.70;;
36855;SDS011;22788;51.434;6.786;2024-02-26T09:38:51;3.60;;;2.87;;
36855;SDS011;22788;51.434;6.786;2024-02-26T09:41:17;3.70;;;2.13;;
36855;SDS011;22788;51.434;6.786;2024-02-26T09:43:44;2.50;;;2.27;;
36855;SDS011;22788;51.434;6.786;2024-02-26T09:46:10;3.50;;;2.63;;
36855;SDS011;22788;51.434;6.786;2024-02-26T09:48:35;3.13;;;2.30;;
36855;SDS011;22788;51.434;6.786;2024-02-26T09:51:03;4.07;;;2.83;;
36855;SDS011;22788;51.434;6.786;2024-02-26T09:53:29;2.50;;;2.30;;
36855;SDS011;22788;51.434;6.786;2024-02-26T09:55:55;4.07;;;2.60;;
36855;SDS011;22788;51.434;6.786;2024-02-26T09:58:20;6.53;;;3.00;;
36855;SDS011;22788;51.434;6.786;2024-02-26T10:00:50;6.53;;;2.90;;
36855;SDS011;22788;51.434;6.786;2024-02-26T10:03:19;3.70;;;2.67;;
36855;SDS011;22788;51.434;6.786;2024-02-26T10:05:46;2.33;;;2.13;;
36855;SDS011;22788;51.434;6.786;2024-02-26T10:08:13;3.33;;;2.40;;
36855;SDS011;22788;51.434;6.786;2024-02-26T10:10:39;2.87;;;2.13;;
36855;SDS011;22788;51.434;6.786;2024-02-26T10:13:06;2.67;;;2.30;;
36855;SDS011;22788;51.434;6.786;2024-02-26T10:15:33;3.10;;;2.27;;
36855;SDS011;22788;51.434;6.786;2024-02-26T10:18:00;2.57;;;2.10;;
36855;SDS011;22788;51.434;6.786;2024-02-26T10:20:28;2.90;;;2.57;;
36855;SDS011;22788;51.434;6.786;2024-02-26T10:22:53;3.17;;;2.20;;
36855;SDS011;22788;51.434;6.786;2024-02-26T10:25:19;2.77;;;2.13;;
36855;SDS011;22788;51.434;6.786;2024-02-26T10:27:45;5.00;;;2.60;;
36855;SDS011;22788;51.434;6.786;2024-02-26T10:30:18;3.03;;;2.73;;
36855;SDS011;22788;51.434;6.786;2024-02-26T10:32:45;2.97;;;2.67;;
36855;SDS011;22788;51.434;6.786;2024-02-26T10:35:12;2.73;;;2.33;;
36855;SDS011;22788;51.434;6.786;2024-02-26T10:37:38;4.60;;;2.47;;
36855;SDS011;22788;51.434;6.786;2024-02-26T10:40:05;2.83;;;2.50;;
36855;SDS011;22788;51.434;6.786;2024-02-26T10:42:34;3.60;;;2.47;;
36855;SDS011;22788;51.434;6.786;2024-02-26T10:44:59;2.50;;;2.20;;
36855;SDS011;22788;51.434;6.786;2024-02-26T10:47:25;2.60;;;2.30;;
36855;SDS011;22788;51.434;6.786;2024-02-26T10:49:51;4.63;;;2.40;;
36855;SDS011;22788;51.434;6.786;2024-02-26T10:52:18;4.27;;;2.67;;
36855;SDS011;22788;51.434;6.786;2024-02-26T10:54:44;2.80;;;2.27;;
36855;SDS011;22788;51.434;6.786;2024-02-26T10:57:12;3.77;;;2.60;;
36855;SDS011;22788;51.434;6.786;2024-02-26T10:59:39;3.20;;;2.50;;
36855;SDS011;22788;51.434;6.786;2024-02-26T11:02:06;2.87;;;2.60;;
36855;SDS011;22788;51.434;6.786;2024-02-26T11:04:34;2.30;;;2.07;;
36855;SDS011;22788;51.434;6.786;2024-02-26T11:07:01;3.07;;;2.50;;
36855;SDS011;22788;51.434;6.786;2024-02-26T11:09:29;3.37;;;2.63;;
36855;SDS011;22788;51.434;6.786;2024-02-26T11:11:55;3.23;;;2.93;;
36855;SDS011;22788;51.434;6.786;2024-02-26T11:14:22;3.33;;;2.30;;
36855;SDS011;22788;51.434;6.786;2024-02-26T11:16:48;3.00;;;2.63;;
36855;SDS011;22788;51.434;6.786;2024-02-26T11:19:15;2.63;;;2.43;;
36855;SDS011;22788;51.434;6.786;2024-02-26T11:21:41;2.70;;;2.40;;
36855;SDS011;22788;51.434;6.786;2024-02-26T11:24:07;3.67;;;2.53;;
36855;SDS011;22788;51.434;6.786;2024-02-26T11:26:39;5.80;;;2.67;;
36855;SDS011;22788;51.434;6.786;2024-02-26T11:29:08;2.93;;;2.63;;
36855;SDS011;22788;51.434;6.786;2024-02-26T11:31:35;8.43;;;3.30;;
36855;SDS011;22788;51.434;6.786;2024-02-26T11:34:03;5.47;;;2.37;;
36855;SDS011;22788;51.434;6.786;2024-02-26T11:36:28;2.80;;;2.37;;
36855;SDS011;22788;51.434;6.786;2024-02-26T11:38:54;3.10;;;2.60;;
36855;SDS011;22788;51.434;6.786;2024-02-26T11:41:20;3.87;;;2.93;;
36855;SDS011;22788;51.434;6.786;2024-02-26T11:43:51;4.27;;;2.77;;
36855;SDS011;22788;51.434;6.786;2024-02-26T11:46:27;6.67;;;2.53;;
36855;SDS011;22788;51.434;6.786;2024-02-26T11:48:54;3.97;;;2.67;;
36855;SDS011;22788;51.434;6.786;2024-02-26T11:51:24;2.90;;;2.53;;
36855;SDS011;22788;51.434;6.786;2024-02-26T11:53:50;2.27;;;2.07;;
36855;SDS011;22788;51.434;6.786;2024-02-26T11:56:22;3.50;;;2.70;;
36855;SDS011;22788;51.434;6.786;2024-02-26T11:58:48;3.27;;;2.40;;
36855;SDS011;22788;51.434;6.786;2024-02-26T12:01:40;3.17;;;2.50;;
36855;SDS011;22788;51.434;6.786;2024-02-26T12:04:07;5.03;;;2.67;;
36855;SDS011;22788;51.434;6.786;2024-02-26T12:06:40;3.60;;;2.83;;
36855;SDS011;22788;51.434;6.786;2024-02-26T12:09:35;2.97;;;2.50;;
36855;SDS011;22788;51.434;6.786;2024-02-26T12:12:02;3.93;;;2.63;;
36855;SDS011;22788;51.434;6.786;2024-02-26T12:14:31;4.50;;;2.63;;
36855;SDS011;22788;51.434;6.786;2024-02-26T12:16:58;2.80;;;2.57;;
36855;SDS011;22788;51.434;6.786;2024-02-26T12:19:24;3.13;;;2.50;;
36855;SDS011;22788;51.434;6.786;2024-02-26T12:21:51;3.33;;;3.03;;
36855;SDS011;22788;51.434;6.786;2024-02-26T12:24:17;2.93;;;2.70;;
36855;SDS011;22788;51.434;6.786;2024-02-26T12:26:43;4.83;;;2.83;;
36855;SDS011;22788;51.434;6.786;2024-02-26T12:29:15;4.80;;;3.37;;
36855;SDS011;22788;51.434;6.786;2024-02-26T12:31:48;5.63;;;2.80;;
36855;SDS011;22788;51.434;6.786;2024-02-26T12:34:20;3.13;;;2.77;;
36855;SDS011;22788;51.434;6.786;2024-02-26T12:36:52;3.97;;;3.20;;
36855;SDS011;22788;51.434;6.786;2024-02-26T12:39:25;4.43;;;3.43;;
36855;SDS011;22788;51.434;6.786;2024-02-26T12:41:54;5.50;;;3.83;;
36855;SDS011;22788;51.434;6.786;2024-02-26T12:44:26;4.13;;;2.83;;
36855;SDS011;22788;51.434;6.786;2024-02-26T12:47:01;4.03;;;3.23;;
36855;SDS011;22788;51.434;6.786;2024-02-26T12:49:29;4.37;;;3.10;;
36855;SDS011;22788;51.434;6.786;2024-02-26T12:52:00;5.03;;;3.57;;
36855;SDS011;22788;51.434;6.786;2024-02-26T12:54:27;5.07;;;3.93;;
36855;SDS011;22788;51.434;6.786;2024-02-26T12:56:53;4.30;;;3.67;;
36855;SDS011;22788;51.434;6.786;2024-02-26T12:59:22;4.67;;;3.10;;
36855;SDS011;22788;51.434;6.786;2024-02-26T13:01:51;4.57;;;3.60;;
36855;SDS011;22788;51.434;6.786;2024-02-26T13:04:18;4.47;;;3.90;;
36855;SDS011;22788;51.434;6.786;2024-02-26T13:06:44;5.47;;;4.03;;
36855;SDS011;22788;51.434;6.786;2024-02-26T13:11:54;4.10;;;3.67;;
36855;SDS011;22788;51.434;6.786;2024-02-26T13:22:24;5.13;;;3.93;;
36855;SDS011;22788;51.434;6.786;2024-02-26T13:27:27;4.30;;;3.33;;
36855;SDS011;22788;51.434;6.786;2024-02-26T13:30:08;5.40;;;3.70;;
36855;SDS011;22788;51.434;6.786;2024-02-26T13:32:40;4.47;;;3.30;;
36855;SDS011;22788;51.434;6.786;2024-02-26T13:35:12;4.93;;;3.60;;
36855;SDS011;22788;51.434;6.786;2024-02-26T13:37:41;5.10;;;3.63;;
36855;SDS011;22788;51.434;6.786;2024-02-26T13:55:53;3.80;;;3.43;;
36855;SDS011;22788;51.434;6.786;2024-02-26T13:58:19;6.53;;;3.73;;
36855;SDS011;22788;51.434;6.786;2024-02-26T14:00:45;5.10;;;3.17;;
36855;SDS011;22788;51.434;6.786;2024-02-26T14:03:15;5.37;;;3.53;;
36855;SDS011;22788;51.434;6.786;2024-02-26T14:05:41;5.63;;;3.13;;
36855;SDS011;22788;51.434;6.786;2024-02-26T14:08:07;6.00;;;3.57;;
36855;SDS011;22788;51.434;6.786;2024-02-26T15:10:08;5.83;;;3.80;;
36855;SDS011;22788;51.434;6.786;2024-02-26T15:12:34;3.70;;;3.03;;
36855;SDS011;22788;51.434;6.786;2024-02-26T15:14:59;3.87;;;3.23;;
36855;SDS011;22788;51.434;6.786;2024-02-26T15:17:25;6.90;;;3.03;;
36855;SDS011;22788;51.434;6.786;2024-02-26T15:19:51;3.73;;;3.20;;
36855;SDS011;22788;51.434;6.786;2024-02-26T15:22:17;4.53;;;3.60;;
36855;SDS011;22788;51.434;6.786;2024-02-26T15:24:43;3.73;;;2.90;;
36855;SDS011;22788;51.434;6.786;2024-02-26T15:27:10;3.90;;;3.07;;
36855;SDS011;22788;51.434;6.786;2024-02-26T15:29:36;4.90;;;3.03;;
36855;SDS011;22788;51.434;6.786;2024-02-26T15:32:02;5.47;;;3.53;;
36855;SDS011;22788;51.434;6.786;2024-02-26T15:34:28;4.13;;;3.03;;
36855;SDS011;22788;51.434;6.786;2024-02-26T15:36:53;3.53;;;3.00;;
36855;SDS011;22788;51.434;6.786;2024-02-26T15:39:19;7.03;;;3.50;;
36855;SDS011;22788;51.434;6.786;2024-02-26T15:41:44;5.40;;;3.60;;
36855;SDS011;22788;51.434;6.786;2024-02-26T15:44:11;4.07;;;3.00;;
36855;SDS011;22788;51.434;6.786;2024-02-26T15:46:38;5.35;;;3.40;;
36855;SDS011;22788;51.434;6.786;2024-02-26T15:49:04;4.47;;;3.77;;
36855;SDS011;22788;51.434;6.786;2024-02-26T15:51:30;6.00;;;3.63;;
36855;SDS011;22788;51.434;6.786;2024-02-26T15:53:56;6.57;;;4.43;;
36855;SDS011;22788;51.434;6.786;2024-02-26T15:56:22;6.33;;;3.87;;
36855;SDS011;22788;51.434;6.786;2024-02-26T15:58:47;5.60;;;3.30;;
36855;SDS011;22788;51.434;6.786;2024-02-26T16:01:14;7.40;;;4.10;;
36855;SDS011;22788;51.434;6.786;2024-02-26T16:03:40;6.53;;;3.67;;
36855;SDS011;22788;51.434;6.786;2024-02-26T16:06:06;4.80;;;3.73;;
36855;SDS011;22788;51.434;6.786;2024-02-26T16:08:36;4.87;;;3.27;;
36855;SDS011;22788;51.434;6.786;2024-02-26T16:11:02;5.13;;;3.87;;
36855;SDS011;22788;51.434;6.786;2024-02-26T16:13:28;5.17;;;3.83;;
36855;SDS011;22788;51.434;6.786;2024-02-26T16:15:56;5.23;;;4.27;;
36855;SDS011;22788;51.434;6.786;2024-02-26T16:18:28;6.93;;;4.67;;
36855;SDS011;22788;51.434;6.786;2024-02-26T16:20:53;4.90;;;3.77;;